Time;durP1;ratioP1;P1;durP2;ratioP2;P2;SDS_P1;SDS_P2;PMS_P1;PMS_P2;Temp;Humidity;BMP_temperature;BMP_pressure;BME280_temperature;BME280_humidity;BME280_pressure;Samples;Min_cycle;Max_cycle;Signal;HPM_P1;HPM_P2
2024/02/28 00:10:38;;;;;;;72.63;45.53;;;8.40;99.90;;;;;;4748028;29;20200;-83
2024/02/28 00:36:03;;;;;;;65.73;42.17;;;8.30;99.90;;;;;;4922643;28;20245;-85
2024/02/28 06:51:58;;;;;;;91.07;55.83;;;9.10;99.90;;;;;;4768357;29;20289;-81
2024/02/28 06:56:17;;;;;;;90.37;57.00;;;9.20;99.90;;;;;;4730158;29;20318;-77
2024/02/28 07:16:57;;;;;;;91.00;54.63;;;9.70;99.90;;;;;;4758734;29;20949;-79
2024/02/28 07:37:13;;;;;;;82.13;52.20;;;10.40;99.90;;;;;;4725097;29;20507;-79
2024/02/28 07:58:03;;;;;;;75.13;49.70;;;10.70;99.90;;;;;;4690775;29;20261;-79
2024/02/28 08:02:14;;;;;;;74.07;47.90;;;10.60;99.90;;;;;;4633776;29;20273;-79
2024/02/28 08:22:52;;;;;;;65.23;46.30;;;10.80;99.90;;;;;;4544342;30;20858;-79
2024/02/28 08:48:35;;;;;;;60.77;41.50;;;11.20;99.90;;;;;;4541429;30;20258;-78
2024/02/28 09:18:38;;;;;;;63.20;43.13;;;12.10;99.90;;;;;;4751617;29;20235;-77
2024/02/28 09:49:11;;;;;;;46.77;35.03;;;12.70;99.90;;;;;;4745623;29;20319;-83
2024/02/28 10:14:33;;;;;;;37.57;28.20;;;13.40;99.90;;;;;;4519198;30;20276;-79
2024/02/28 10:44:34;;;;;;;38.67;27.67;;;12.90;99.90;;;;;;4489834;30;20598;-78
2024/02/28 11:10:24;;;;;;;41.43;29.23;;;12.80;99.90;;;;;;4551325;30;20613;-79
2024/02/28 11:30:27;;;;;;;41.30;28.60;;;13.00;99.90;;;;;;4551808;30;20448;-75
2024/02/28 11:56:03;;;;;;;38.70;24.27;;;12.90;99.90;;;;;;4602943;30;20267;-79
2024/02/28 12:21:23;;;;;;;52.63;33.90;;;12.50;99.90;;;;;;4589099;30;20546;-80
2024/02/28 12:52:00;;;;;;;79.53;49.03;;;11.70;99.90;;;;;;4664156;29;21286;-81
2024/02/28 13:32:35;;;;;;;61.30;37.43;;;10.70;99.90;;;;;;4693910;29;20205;-80
2024/02/28 14:03:00;;;;;;;46.77;29.70;;;10.20;99.90;;;;;;4606621;29;20321;-81
2024/02/28 14:28:16;;;;;;;43.87;28.10;;;10.10;99.90;;;;;;4465589;31;20225;-81
2024/02/28 14:53:39;;;;;;;35.97;22.47;;;9.50;99.90;;;;;;4482991;30;20828;-82
2024/02/28 15:19:13;;;;;;;33.20;18.93;;;9.50;99.90;;;;;;4646557;30;20364;-86
2024/02/28 15:34:30;;;;;;;31.90;19.87;;;9.50;99.90;;;;;;4799698;29;20207;-87
2024/02/28 15:38:49;;;;;;;33.20;19.60;;;9.50;99.90;;;;;;4695083;29;20774;-86
2024/02/28 16:39:41;;;;;;;35.50;23.13;;;9.20;99.90;;;;;;4625295;29;21124;-86
2024/02/28 17:00:39;;;;;;;37.83;22.07;;;9.20;99.90;;;;;;4628634;30;20226;-86
2024/02/28 17:51:11;;;;;;;38.70;23.43;;;9.10;99.90;;;;;;4535009;30;20856;-85
2024/02/28 18:21:07;;;;;;;34.67;22.93;;;9.00;99.90;;;;;;4722666;29;20523;-87
2024/02/28 18:37:05;;;;;;;34.80;23.20;;;9.00;99.90;;;;;;4780162;29;20243;-86
2024/02/28 18:57:15;;;;;;;32.10;21.27;;;8.80;99.90;;;;;;4691045;29;20525;-87
2024/02/28 19:27:37;;;;;;;28.67;19.90;;;8.70;99.90;;;;;;4712258;29;20229;-84
2024/02/28 20:53:54;;;;;;;40.23;24.47;;;8.00;99.90;;;;;;4556304;30;20723;-86
2024/02/28 21:18:53;;;;;;;38.97;24.40;;;7.90;99.90;;;;;;4597428;30;20808;-85
2024/02/28 21:44:41;;;;;;;38.30;20.60;;;7.80;99.90;;;;;;4620442;30;20822;-85
2024/02/28 22:10:00;;;;;;;48.17;27.87;;;7.80;99.90;;;;;;4743411;29;20209;-87
2024/02/28 22:45:36;;;;;;;48.03;25.70;;;7.60;99.90;;;;;;4785523;29;20629;-86
2024/02/28 22:49:56;;;;;;;44.93;25.03;;;7.60;99.90;;;;;;4685288;29;20229;-87
2024/02/28 23:05:35;;;;;;;48.33;26.67;;;7.50;99.90;;;;;;4675767;29;20236;-87
2024/02/28 23:35:37;;;;;;;22.87;14.20;;;7.30;99.90;;;;;;4625112;30;20217;-89
2024/02/28 23:56:35;;;;;;;23.53;15.00;;;7.30;99.90;;;;;;4663145;30;21272;-87
